Historique des mesures à Cassis (13260), France
Quotidien Résumé Avril 3, 2017 Unités:  US    Métrique   Métrique/US
« Précédent (Jour)
Suivant (Jour) »
Quotidien Hebdomadaire Mensuel Annuel Période au choix
  Maximum: Minimum: Moyenne:
Température: 32 °F 52.3 °F 59 °F
Point de rosée: 32 °F 46.8 °F 48.9 °F
Humidité: Humidity % 48 % 67 %
Vitesse du vent: WindSpeedKMH mph 0.0 mph 4.5 mph
Rafales: WindSpeedGustKMH mph - -
Vent:- - WSW
Pression: 0 in 29.9 in -
Précipitations: 0 in    
Historical Graphs
 
 
Mesures pour : Avril 3, 2017
Heure Temperature Point de rosée Pression Vent Vitesse du vent Rafales Humidité Pluie (par heure) Conditions
32 °F 32 °F 0 in Calm     Humidity % 0 in SoftwareType W/m2
00:11 54.3 °F 50.5 °F 30 in Calm   1.8 mph 87 % 0 in open2300-1.11 W/m2
01:11 54.3 °F 50.5 °F 30 in Calm     87 % 0 in open2300-1.11 W/m2
02:11 53.8 °F 49.3 °F 30 in NW 1.8 mph 7.9 mph 85 % 0 in open2300-1.11 W/m2
03:11 52.9 °F 48.6 °F 30 in NNW 2.6 mph 4.7 mph 85 % 0 in open2300-1.11 W/m2
04:11 52.9 °F 48.6 °F 29.9 in NNW 8.2 mph 8.2 mph 85 % 0 in open2300-1.11 W/m2
05:11 52.3 °F 47.3 °F 29.9 in NNW 5.0 mph 5.8 mph 83 % 0 in open2300-1.11 W/m2
06:11 53.1 °F 47.5 °F 29.9 in Calm     81 % 0 in open2300-1.11 W/m2
07:11 53.8 °F 47.5 °F 29.9 in West 3.2 mph 3.2 mph 79 % 0 in open2300-1.11 W/m2
08:11 53.4 °F 46.8 °F 30 in Calm   5.0 mph 78 % 0 in open2300-1.11 W/m2
09:11 56.8 °F 47.5 °F 30 in North 2.6 mph 6.8 mph 71 % 0 in open2300-1.11 W/m2
10:11 58.8 °F 48.7 °F 30 in East 4.7 mph 4.7 mph 69 % 0 in open2300-1.11 W/m2
11:11 61.9 °F 51.3 °F 30 in SE 1.8 mph 2.6 mph 68 % 0 in open2300-1.11 W/m2
12:11 65.3 °F 53.6 °F 30 in SSE 7.9 mph 7.9 mph 66 % 0 in open2300-1.11 W/m2
13:11 66.9 °F 54 °F 30 in Calm   6.8 mph 63 % 0 in open2300-1.11 W/m2
14:11 67.8 °F 53.8 °F 30 in ESE 5.8 mph 5.8 mph 61 % 0 in open2300-1.11 W/m2
15:11 68.4 °F 51.4 °F 30 in SSW 4.7 mph 5.8 mph 55 % 0 in open2300-1.11 W/m2
16:11 68.9 °F 49.5 °F 30 in SSE 7.6 mph 7.6 mph 50 % 0 in open2300-1.11 W/m2
17:11 68.5 °F 48 °F 30 in West 3.5 mph 6.8 mph 48 % 0 in open2300-1.11 W/m2
18:11 67.8 °F 47.5 °F 30 in NW 4.7 mph 7.2 mph 48 % 0 in open2300-1.11 W/m2
19:11 64.9 °F 49.8 °F 30 in NW 18.3 mph 20.9 mph 58 % 0 in open2300-1.11 W/m2
20:11 61.9 °F 49.6 °F 30 in NNW 15.4 mph 15.8 mph 64 % 0 in open2300-1.11 W/m2
21:11 60.6 °F 49.3 °F 30 in Calm     66 % 0 in open2300-1.11 W/m2
22:11 60.8 °F 49.8 °F 30 in Calm     67 % 0 in open2300-1.11 W/m2
23:11 62.4 °F 48.7 °F 30 in NNW 14.8 mph 14.8 mph 61 % 0 in open2300-1.11 W/m2
Observations météo à CASSIS
WU-History script by Weather Underground - 1 mb